METAR AND TAF INFORMATION
METAR FOR SBMK
ADDS - METARS form results

(1119 UTC 19 January 2019)
Data provider http://aviationweather.gov/metar/data/
 
METAR text: SBMK 191100Z 06007KT CAVOK 25/15 Q1018
Conditions at: SBMK (MONTES CLAROS , BR) observed 1100 UTC 19 January 2019
Temperature: 25.0°C (77°F)
Dewpoint: 15.0°C (59°F) [RH = 54%]
Pressure (altimeter): 30.06 inches Hg (1018.0 mb)
Winds: from the ENE (60 degrees) at 8 MPH (7 knots; 3.6 m/s)
Visibility: 6 or more miles (10+ km)
Ceiling: ceiling and visibility are OK
Clouds: unknown
Weather: no significant weather observed at this time

 AIRPORT MAP

 RUNWAY INFORMATION
Runway 12 Runway length 6890 ft Runway width 148 ft
Runway elevation 0 ft Runway displaced threshold 0 ft Runway heading 0
Runway 30 Runway length 6890 ft Runway width 148 ft
Runway elevation 0 ft Runway displaced threshold 0 ft Runway heading 0

 AIRPORT FREQUENCIES
Type AFIS Name RDO Frequency 131.7 MHZ

 AIRPORT NEAR NAVIGATION AIDS
Type NDB Name Montes Claros Frequency 310 KHZ



Powered by Virtual Airlines Manager [v2.6.2]